Apulia Station, New York
Current Conditions -  °F | °C
As of 5:35 PM on Wednesday 22 Oct 2014 (Local Time) from KN03 Reporting Station
Moderate Rain Moderate Rain  
Wind Chill: 46°   Ceiling: 1500
Heat Index: 48°   Visibility: 10mi
Dew Point: 45°   Wind: 5mph
Humidity: 87%   Direction: 330°NNW
Pressure: 30.09"   Gusts: NA
Location:  42.82°N, 76.07°W
Report Text: KN03 222135Z AUTO 33004KT 10SM RA OVC015 09/07 A3009 RMK AO2
Loading
Personal Weather Stations






























Interactive Weather Map
Tropical Storm Tracking
New forecast layout! Learn more

10-Day Weather Forecast

Advertisements
Track Severe Weather on mobile